sensor_id;sensor_type;location;lat;lon;timestamp;temperature;humidity
57664;DHT22;43493;53.098;6.064;2023-01-08T00:01:34;9.70;99.90
57664;DHT22;43493;53.098;6.064;2023-01-08T00:04:00;9.70;99.90
57664;DHT22;43493;53.098;6.064;2023-01-08T00:06:26;9.80;99.90
57664;DHT22;43493;53.098;6.064;2023-01-08T00:08:52;9.80;99.90
57664;DHT22;43493;53.098;6.064;2023-01-08T00:11:18;9.80;99.90
57664;DHT22;43493;53.098;6.064;2023-01-08T00:13:43;9.80;99.90
57664;DHT22;43493;53.098;6.064;2023-01-08T00:16:12;9.80;99.90
57664;DHT22;43493;53.098;6.064;2023-01-08T00:18:38;9.70;99.90
57664;DHT22;43493;53.098;6.064;2023-01-08T00:21:05;9.80;99.90
57664;DHT22;43493;53.098;6.064;2023-01-08T00:23:31;9.70;99.90
57664;DHT22;43493;53.098;6.064;2023-01-08T00:26:00;9.70;99.90
57664;DHT22;43493;53.098;6.064;2023-01-08T00:28:26;9.70;99.90
57664;DHT22;43493;53.098;6.064;2023-01-08T00:30:52;9.70;99.90
57664;DHT22;43493;53.098;6.064;2023-01-08T00:33:18;9.70;99.90
57664;DHT22;43493;53.098;6.064;2023-01-08T00:35:43;9.70;99.90
57664;DHT22;43493;53.098;6.064;2023-01-08T00:38:09;9.60;99.90
57664;DHT22;43493;53.098;6.064;2023-01-08T00:40:36;9.60;99.90
57664;DHT22;43493;53.098;6.064;2023-01-08T00:43:03;9.60;99.90
57664;DHT22;43493;53.098;6.064;2023-01-08T00:45:29;9.60;99.90
57664;DHT22;43493;53.098;6.064;2023-01-08T00:47:54;9.60;99.90
57664;DHT22;43493;53.098;6.064;2023-01-08T00:50:20;9.60;99.90
57664;DHT22;43493;53.098;6.064;2023-01-08T00:52:46;9.60;99.90
57664;DHT22;43493;53.098;6.064;2023-01-08T00:55:11;9.50;99.90
57664;DHT22;43493;53.098;6.064;2023-01-08T00:57:38;9.50;99.90
57664;DHT22;43493;53.098;6.064;2023-01-08T01:00:07;9.50;99.90
57664;DHT22;43493;53.098;6.064;2023-01-08T01:02:36;9.50;99.90
57664;DHT22;43493;53.098;6.064;2023-01-08T01:05:03;9.40;99.90
57664;DHT22;43493;53.098;6.064;2023-01-08T01:07:30;9.40;99.90
57664;DHT22;43493;53.098;6.064;2023-01-08T01:09:56;9.40;99.90
57664;DHT22;43493;53.098;6.064;2023-01-08T01:12:21;9.40;99.90
57664;DHT22;43493;53.098;6.064;2023-01-08T01:14:47;9.40;99.90
57664;DHT22;43493;53.098;6.064;2023-01-08T01:17:13;9.40;99.90
57664;DHT22;43493;53.098;6.064;2023-01-08T01:19:39;9.40;99.90
57664;DHT22;43493;53.098;6.064;2023-01-08T01:22:06;9.40;99.90
57664;DHT22;43493;53.098;6.064;2023-01-08T01:24:32;9.40;99.90
57664;DHT22;43493;53.098;6.064;2023-01-08T01:26:58;9.40;99.90
57664;DHT22;43493;53.098;6.064;2023-01-08T01:29:24;9.40;99.90
57664;DHT22;43493;53.098;6.064;2023-01-08T01:31:49;9.40;99.90
57664;DHT22;43493;53.098;6.064;2023-01-08T01:34:16;9.30;99.90
57664;DHT22;43493;53.098;6.064;2023-01-08T01:36:42;9.30;99.90
57664;DHT22;43493;53.098;6.064;2023-01-08T01:39:08;9.30;99.90
57664;DHT22;43493;53.098;6.064;2023-01-08T01:41:42;9.30;99.90
57664;DHT22;43493;53.098;6.064;2023-01-08T01:44:43;9.30;99.90
57664;DHT22;43493;53.098;6.064;2023-01-08T01:47:24;9.30;99.90
57664;DHT22;43493;53.098;6.064;2023-01-08T01:49:59;9.30;99.90
57664;DHT22;43493;53.098;6.064;2023-01-08T01:52:28;9.20;99.90
57664;DHT22;43493;53.098;6.064;2023-01-08T01:54:56;9.20;99.90
57664;DHT22;43493;53.098;6.064;2023-01-08T01:57:23;9.20;99.90
57664;DHT22;43493;53.098;6.064;2023-01-08T01:59:52;9.20;99.90
57664;DHT22;43493;53.098;6.064;2023-01-08T02:02:18;9.20;99.90
57664;DHT22;43493;53.098;6.064;2023-01-08T02:04:44;9.10;99.90
57664;DHT22;43493;53.098;6.064;2023-01-08T02:07:41;9.10;99.90
57664;DHT22;43493;53.098;6.064;2023-01-08T02:10:27;9.10;99.90
57664;DHT22;43493;53.098;6.064;2023-01-08T02:13:03;9.00;99.90
57664;DHT22;43493;53.098;6.064;2023-01-08T02:15:55;9.00;99.90
57664;DHT22;43493;53.098;6.064;2023-01-08T02:18:31;9.00;99.90
57664;DHT22;43493;53.098;6.064;2023-01-08T02:21:16;9.00;99.90
57664;DHT22;43493;53.098;6.064;2023-01-08T02:24:18;8.90;99.90
57664;DHT22;43493;53.098;6.064;2023-01-08T02:26:46;8.90;99.90
57664;DHT22;43493;53.098;6.064;2023-01-08T02:31:40;8.90;99.90
57664;DHT22;43493;53.098;6.064;2023-01-08T02:34:07;8.90;99.90
57664;DHT22;43493;53.098;6.064;2023-01-08T02:36:34;8.90;99.90
57664;DHT22;43493;53.098;6.064;2023-01-08T02:47:34;8.80;99.90
57664;DHT22;43493;53.098;6.064;2023-01-08T02:52:54;8.70;99.90
57664;DHT22;43493;53.098;6.064;2023-01-08T02:55:23;8.70;99.90
57664;DHT22;43493;53.098;6.064;2023-01-08T02:57:51;8.70;99.90
57664;DHT22;43493;53.098;6.064;2023-01-08T03:00:18;8.60;99.90
57664;DHT22;43493;53.098;6.064;2023-01-08T03:02:45;8.60;99.90
57664;DHT22;43493;53.098;6.064;2023-01-08T03:05:19;8.60;99.90
57664;DHT22;43493;53.098;6.064;2023-01-08T03:07:47;8.60;99.90
57664;DHT22;43493;53.098;6.064;2023-01-08T03:10:13;8.50;99.90
57664;DHT22;43493;53.098;6.064;2023-01-08T03:12:47;8.50;99.90
57664;DHT22;43493;53.098;6.064;2023-01-08T03:15:30;8.50;99.90
57664;DHT22;43493;53.098;6.064;2023-01-08T03:18:04;8.50;99.90
57664;DHT22;43493;53.098;6.064;2023-01-08T03:20:32;8.50;99.90
57664;DHT22;43493;53.098;6.064;2023-01-08T03:23:01;8.40;99.90
57664;DHT22;43493;53.098;6.064;2023-01-08T03:25:30;8.40;99.90
57664;DHT22;43493;53.098;6.064;2023-01-08T03:28:02;8.30;99.90
57664;DHT22;43493;53.098;6.064;2023-01-08T03:30:30;8.30;99.90
57664;DHT22;43493;53.098;6.064;2023-01-08T03:32:58;8.30;99.90
57664;DHT22;43493;53.098;6.064;2023-01-08T03:35:25;8.30;99.90
57664;DHT22;43493;53.098;6.064;2023-01-08T03:38:02;8.30;99.90
57664;DHT22;43493;53.098;6.064;2023-01-08T03:40:35;8.30;99.90
57664;DHT22;43493;53.098;6.064;2023-01-08T03:43:01;8.30;99.90
57664;DHT22;43493;53.098;6.064;2023-01-08T03:45:29;8.30;99.90
57664;DHT22;43493;53.098;6.064;2023-01-08T03:47:56;8.30;99.90
57664;DHT22;43493;53.098;6.064;2023-01-08T03:50:27;8.30;99.90
57664;DHT22;43493;53.098;6.064;2023-01-08T03:52:54;8.30;99.90
57664;DHT22;43493;53.098;6.064;2023-01-08T03:55:20;8.30;99.90
57664;DHT22;43493;53.098;6.064;2023-01-08T03:57:45;8.30;99.90
57664;DHT22;43493;53.098;6.064;2023-01-08T04:00:12;8.30;99.90
57664;DHT22;43493;53.098;6.064;2023-01-08T04:02:37;8.30;99.90
57664;DHT22;43493;53.098;6.064;2023-01-08T04:05:03;8.30;99.90
57664;DHT22;43493;53.098;6.064;2023-01-08T04:07:29;8.30;99.90
57664;DHT22;43493;53.098;6.064;2023-01-08T04:09:55;8.30;99.90
57664;DHT22;43493;53.098;6.064;2023-01-08T04:12:21;8.30;99.90
57664;DHT22;43493;53.098;6.064;2023-01-08T04:14:48;8.30;99.90
57664;DHT22;43493;53.098;6.064;2023-01-08T04:17:14;8.30;99.90
57664;DHT22;43493;53.098;6.064;2023-01-08T04:19:40;8.30;99.90
57664;DHT22;43493;53.098;6.064;2023-01-08T04:22:08;8.30;99.90
57664;DHT22;43493;53.098;6.064;2023-01-08T04:24:35;8.30;99.90
57664;DHT22;43493;53.098;6.064;2023-01-08T04:27:00;8.30;99.90
57664;DHT22;43493;53.098;6.064;2023-01-08T04:29:26;8.30;99.90
57664;DHT22;43493;53.098;6.064;2023-01-08T04:31:51;8.30;99.90
57664;DHT22;43493;53.098;6.064;2023-01-08T04:34:17;8.30;99.90
57664;DHT22;43493;53.098;6.064;2023-01-08T04:36:43;8.30;99.90
57664;DHT22;43493;53.098;6.064;2023-01-08T04:39:09;8.30;99.90
57664;DHT22;43493;53.098;6.064;2023-01-08T04:41:35;8.30;99.90
57664;DHT22;43493;53.098;6.064;2023-01-08T04:44:01;8.30;99.90
57664;DHT22;43493;53.098;6.064;2023-01-08T04:46:27;8.30;99.90
57664;DHT22;43493;53.098;6.064;2023-01-08T04:48:53;8.30;99.90
57664;DHT22;43493;53.098;6.064;2023-01-08T04:51:18;8.30;99.90
57664;DHT22;43493;53.098;6.064;2023-01-08T04:53:46;8.30;99.90
57664;DHT22;43493;53.098;6.064;2023-01-08T04:56:12;8.40;99.90
57664;DHT22;43493;53.098;6.064;2023-01-08T04:58:38;8.30;99.90
57664;DHT22;43493;53.098;6.064;2023-01-08T05:01:12;8.40;99.90
57664;DHT22;43493;53.098;6.064;2023-01-08T05:03:38;8.40;99.90
57664;DHT22;43493;53.098;6.064;2023-01-08T05:06:05;8.40;99.90
57664;DHT22;43493;53.098;6.064;2023-01-08T05:08:31;8.30;99.90
57664;DHT22;43493;53.098;6.064;2023-01-08T05:10:58;8.40;99.90
57664;DHT22;43493;53.098;6.064;2023-01-08T05:13:24;8.40;99.90
57664;DHT22;43493;53.098;6.064;2023-01-08T05:15:50;8.40;99.90
57664;DHT22;43493;53.098;6.064;2023-01-08T05:18:16;8.40;99.90
57664;DHT22;43493;53.098;6.064;2023-01-08T05:20:42;8.50;99.90
57664;DHT22;43493;53.098;6.064;2023-01-08T05:23:07;8.40;99.90
57664;DHT22;43493;53.098;6.064;2023-01-08T05:25:33;8.40;99.90
57664;DHT22;43493;53.098;6.064;2023-01-08T05:27:59;8.40;99.90
57664;DHT22;43493;53.098;6.064;2023-01-08T05:30:25;8.40;99.90
57664;DHT22;43493;53.098;6.064;2023-01-08T05:32:51;8.40;99.90
57664;DHT22;43493;53.098;6.064;2023-01-08T05:35:17;8.40;99.90
57664;DHT22;43493;53.098;6.064;2023-01-08T05:37:42;8.40;99.90
57664;DHT22;43493;53.098;6.064;2023-01-08T05:40:08;8.40;99.90
57664;DHT22;43493;53.098;6.064;2023-01-08T05:42:35;8.30;99.90
57664;DHT22;43493;53.098;6.064;2023-01-08T05:45:05;8.30;99.90
57664;DHT22;43493;53.098;6.064;2023-01-08T05:47:32;8.30;99.90
57664;DHT22;43493;53.098;6.064;2023-01-08T05:49:58;8.20;99.90
57664;DHT22;43493;53.098;6.064;2023-01-08T05:52:24;8.20;99.90
57664;DHT22;43493;53.098;6.064;2023-01-08T05:54:50;8.20;99.90
57664;DHT22;43493;53.098;6.064;2023-01-08T05:57:15;8.20;99.90
57664;DHT22;43493;53.098;6.064;2023-01-08T05:59:41;8.10;99.90
57664;DHT22;43493;53.098;6.064;2023-01-08T06:02:07;8.10;99.90
57664;DHT22;43493;53.098;6.064;2023-01-08T06:04:33;8.10;99.90
57664;DHT22;43493;53.098;6.064;2023-01-08T06:06:59;8.00;99.90
57664;DHT22;43493;53.098;6.064;2023-01-08T06:09:25;8.00;99.90
57664;DHT22;43493;53.098;6.064;2023-01-08T06:11:50;8.00;99.90
57664;DHT22;43493;53.098;6.064;2023-01-08T06:14:18;8.00;99.90
57664;DHT22;43493;53.098;6.064;2023-01-08T06:16:44;7.90;99.90
57664;DHT22;43493;53.098;6.064;2023-01-08T06:19:10;7.90;99.90
57664;DHT22;43493;53.098;6.064;2023-01-08T06:21:36;7.90;99.90
57664;DHT22;43493;53.098;6.064;2023-01-08T06:24:03;7.90;99.90
57664;DHT22;43493;53.098;6.064;2023-01-08T06:26:28;7.90;99.90
57664;DHT22;43493;53.098;6.064;2023-01-08T06:28:54;7.90;99.90
57664;DHT22;43493;53.098;6.064;2023-01-08T06:31:20;7.90;99.90
57664;DHT22;43493;53.098;6.064;2023-01-08T06:33:45;7.80;99.90
57664;DHT22;43493;53.098;6.064;2023-01-08T06:36:11;7.80;99.90
57664;DHT22;43493;53.098;6.064;2023-01-08T06:38:37;7.80;99.90
57664;DHT22;43493;53.098;6.064;2023-01-08T06:41:07;7.80;99.90
57664;DHT22;43493;53.098;6.064;2023-01-08T06:43:34;7.80;99.90
57664;DHT22;43493;53.098;6.064;2023-01-08T06:46:00;7.80;99.90
57664;DHT22;43493;53.098;6.064;2023-01-08T06:48:26;7.70;99.90
57664;DHT22;43493;53.098;6.064;2023-01-08T06:50:52;7.70;99.90
57664;DHT22;43493;53.098;6.064;2023-01-08T06:53:18;7.70;99.90
57664;DHT22;43493;53.098;6.064;2023-01-08T06:55:44;7.70;99.90
57664;DHT22;43493;53.098;6.064;2023-01-08T06:58:11;7.60;99.90
57664;DHT22;43493;53.098;6.064;2023-01-08T07:00:37;7.60;99.90
57664;DHT22;43493;53.098;6.064;2023-01-08T07:03:04;7.60;99.90
57664;DHT22;43493;53.098;6.064;2023-01-08T07:05:29;7.60;99.90
57664;DHT22;43493;53.098;6.064;2023-01-08T07:07:55;7.60;99.90
57664;DHT22;43493;53.098;6.064;2023-01-08T07:10:21;7.60;99.90
57664;DHT22;43493;53.098;6.064;2023-01-08T07:12:47;7.60;99.90
57664;DHT22;43493;53.098;6.064;2023-01-08T07:15:14;7.60;99.90
57664;DHT22;43493;53.098;6.064;2023-01-08T07:17:39;7.50;99.90
57664;DHT22;43493;53.098;6.064;2023-01-08T07:20:06;7.50;99.90
57664;DHT22;43493;53.098;6.064;2023-01-08T07:22:31;7.50;99.90
57664;DHT22;43493;53.098;6.064;2023-01-08T07:24:57;7.50;99.90
57664;DHT22;43493;53.098;6.064;2023-01-08T07:27:23;7.50;99.90
57664;DHT22;43493;53.098;6.064;2023-01-08T07:29:48;7.50;99.90
57664;DHT22;43493;53.098;6.064;2023-01-08T07:32:14;7.50;99.90
57664;DHT22;43493;53.098;6.064;2023-01-08T07:34:40;7.50;99.90
57664;DHT22;43493;53.098;6.064;2023-01-08T07:37:06;7.50;99.90
57664;DHT22;43493;53.098;6.064;2023-01-08T07:39:31;7.50;99.90
57664;DHT22;43493;53.098;6.064;2023-01-08T07:41:58;7.50;99.90
57664;DHT22;43493;53.098;6.064;2023-01-08T07:44:24;7.50;99.90
57664;DHT22;43493;53.098;6.064;2023-01-08T07:46:49;7.50;99.90
57664;DHT22;43493;53.098;6.064;2023-01-08T07:49:15;7.50;99.90
57664;DHT22;43493;53.098;6.064;2023-01-08T07:51:41;7.50;99.90
57664;DHT22;43493;53.098;6.064;2023-01-08T07:54:06;7.50;99.90
57664;DHT22;43493;53.098;6.064;2023-01-08T07:56:32;7.50;99.90
57664;DHT22;43493;53.098;6.064;2023-01-08T07:58:58;7.50;99.90
57664;DHT22;43493;53.098;6.064;2023-01-08T08:01:24;7.50;99.90
57664;DHT22;43493;53.098;6.064;2023-01-08T08:03:51;7.50;99.90
57664;DHT22;43493;53.098;6.064;2023-01-08T08:06:17;7.50;99.90
57664;DHT22;43493;53.098;6.064;2023-01-08T08:08:42;7.40;99.90
57664;DHT22;43493;53.098;6.064;2023-01-08T08:11:08;7.40;99.90
57664;DHT22;43493;53.098;6.064;2023-01-08T08:13:34;7.40;99.90
57664;DHT22;43493;53.098;6.064;2023-01-08T08:16:01;7.40;99.90
57664;DHT22;43493;53.098;6.064;2023-01-08T08:18:26;7.50;99.90
57664;DHT22;43493;53.098;6.064;2023-01-08T08:20:52;7.40;99.90
57664;DHT22;43493;53.098;6.064;2023-01-08T08:23:18;7.40;99.90
57664;DHT22;43493;53.098;6.064;2023-01-08T08:25:43;7.40;99.90
57664;DHT22;43493;53.098;6.064;2023-01-08T08:28:10;7.40;99.90
57664;DHT22;43493;53.098;6.064;2023-01-08T08:30:37;7.40;99.90
57664;DHT22;43493;53.098;6.064;2023-01-08T08:33:04;7.40;99.90
57664;DHT22;43493;53.098;6.064;2023-01-08T08:35:32;7.40;99.90
57664;DHT22;43493;53.098;6.064;2023-01-08T08:37:58;7.40;99.90
57664;DHT22;43493;53.098;6.064;2023-01-08T08:40:25;7.40;99.90
57664;DHT22;43493;53.098;6.064;2023-01-08T08:43:09;7.40;99.90
57664;DHT22;43493;53.098;6.064;2023-01-08T08:45:35;7.40;99.90
57664;DHT22;43493;53.098;6.064;2023-01-08T08:48:01;7.40;99.90
57664;DHT22;43493;53.098;6.064;2023-01-08T08:50:29;7.40;99.90
57664;DHT22;43493;53.098;6.064;2023-01-08T08:53:02;7.40;99.90
57664;DHT22;43493;53.098;6.064;2023-01-08T08:55:27;7.40;99.90
57664;DHT22;43493;53.098;6.064;2023-01-08T08:57:53;7.50;99.90
57664;DHT22;43493;53.098;6.064;2023-01-08T09:00:19;7.50;99.90
57664;DHT22;43493;53.098;6.064;2023-01-08T09:02:45;7.50;99.90
57664;DHT22;43493;53.098;6.064;2023-01-08T09:05:11;7.50;99.90
57664;DHT22;43493;53.098;6.064;2023-01-08T09:07:37;7.50;99.90
57664;DHT22;43493;53.098;6.064;2023-01-08T09:10:03;7.50;99.90
57664;DHT22;43493;53.098;6.064;2023-01-08T09:12:29;7.50;99.90
57664;DHT22;43493;53.098;6.064;2023-01-08T09:14:55;7.50;99.90
57664;DHT22;43493;53.098;6.064;2023-01-08T09:17:21;7.50;99.90
57664;DHT22;43493;53.098;6.064;2023-01-08T09:19:47;7.60;99.90
57664;DHT22;43493;53.098;6.064;2023-01-08T09:22:13;7.60;99.90
57664;DHT22;43493;53.098;6.064;2023-01-08T09:24:39;7.60;99.90
57664;DHT22;43493;53.098;6.064;2023-01-08T09:27:04;7.60;99.90
57664;DHT22;43493;53.098;6.064;2023-01-08T09:29:30;7.60;99.90
57664;DHT22;43493;53.098;6.064;2023-01-08T09:31:55;7.60;99.90
57664;DHT22;43493;53.098;6.064;2023-01-08T09:34:24;7.60;99.90
57664;DHT22;43493;53.098;6.064;2023-01-08T09:36:49;7.60;99.90
57664;DHT22;43493;53.098;6.064;2023-01-08T09:39:16;7.70;99.90
57664;DHT22;43493;53.098;6.064;2023-01-08T09:41:44;7.70;99.90
57664;DHT22;43493;53.098;6.064;2023-01-08T09:44:15;7.70;99.90
57664;DHT22;43493;53.098;6.064;2023-01-08T09:46:41;7.70;99.90
57664;DHT22;43493;53.098;6.064;2023-01-08T09:49:13;7.70;99.90
57664;DHT22;43493;53.098;6.064;2023-01-08T09:51:40;7.70;99.90
57664;DHT22;43493;53.098;6.064;2023-01-08T09:54:13;7.70;99.90
57664;DHT22;43493;53.098;6.064;2023-01-08T09:56:40;7.80;99.90
57664;DHT22;43493;53.098;6.064;2023-01-08T09:59:06;7.80;99.90
57664;DHT22;43493;53.098;6.064;2023-01-08T10:01:37;7.80;99.90
57664;DHT22;43493;53.098;6.064;2023-01-08T10:04:13;7.80;99.90
57664;DHT22;43493;53.098;6.064;2023-01-08T10:06:40;7.80;99.90
57664;DHT22;43493;53.098;6.064;2023-01-08T10:09:09;7.80;99.90
57664;DHT22;43493;53.098;6.064;2023-01-08T10:11:43;7.80;99.90
57664;DHT22;43493;53.098;6.064;2023-01-08T10:14:29;7.90;99.90
57664;DHT22;43493;53.098;6.064;2023-01-08T10:17:03;7.90;99.90
57664;DHT22;43493;53.098;6.064;2023-01-08T10:19:30;7.90;99.90
57664;DHT22;43493;53.098;6.064;2023-01-08T10:21:56;7.90;99.90
57664;DHT22;43493;53.098;6.064;2023-01-08T10:24:37;7.90;99.90
57664;DHT22;43493;53.098;6.064;2023-01-08T10:27:07;7.90;99.90
57664;DHT22;43493;53.098;6.064;2023-01-08T10:29:35;7.90;99.90
57664;DHT22;43493;53.098;6.064;2023-01-08T10:32:08;7.90;99.90
57664;DHT22;43493;53.098;6.064;2023-01-08T10:34:43;7.90;99.90
57664;DHT22;43493;53.098;6.064;2023-01-08T10:39:47;7.90;99.90
57664;DHT22;43493;53.098;6.064;2023-01-08T10:42:16;8.00;99.90
57664;DHT22;43493;53.098;6.064;2023-01-08T10:44:59;8.00;99.90
57664;DHT22;43493;53.098;6.064;2023-01-08T10:47:28;8.00;99.90
57664;DHT22;43493;53.098;6.064;2023-01-08T10:49:56;8.00;99.90
57664;DHT22;43493;53.098;6.064;2023-01-08T10:52:31;8.00;99.90
57664;DHT22;43493;53.098;6.064;2023-01-08T10:55:23;8.10;99.90
57664;DHT22;43493;53.098;6.064;2023-01-08T10:57:58;8.10;99.90
57664;DHT22;43493;53.098;6.064;2023-01-08T11:00:29;8.20;99.90
57664;DHT22;43493;53.098;6.064;2023-01-08T11:03:00;8.20;99.90
57664;DHT22;43493;53.098;6.064;2023-01-08T11:05:45;8.20;99.90
57664;DHT22;43493;53.098;6.064;2023-01-08T11:08:15;8.20;99.90
57664;DHT22;43493;53.098;6.064;2023-01-08T11:10:42;8.20;99.90
57664;DHT22;43493;53.098;6.064;2023-01-08T11:13:18;8.20;99.90
57664;DHT22;43493;53.098;6.064;2023-01-08T11:15:44;8.20;99.90
57664;DHT22;43493;53.098;6.064;2023-01-08T11:18:20;8.30;99.90
57664;DHT22;43493;53.098;6.064;2023-01-08T11:20:47;8.30;99.90
57664;DHT22;43493;53.098;6.064;2023-01-08T11:25:51;8.30;99.90
57664;DHT22;43493;53.098;6.064;2023-01-08T11:28:26;8.40;99.90
57664;DHT22;43493;53.098;6.064;2023-01-08T11:31:00;8.40;99.90
57664;DHT22;43493;53.098;6.064;2023-01-08T11:33:30;8.40;99.90
57664;DHT22;43493;53.098;6.064;2023-01-08T11:36:14;8.50;99.90
57664;DHT22;43493;53.098;6.064;2023-01-08T11:38:43;8.50;99.90
57664;DHT22;43493;53.098;6.064;2023-01-08T11:41:23;8.50;99.90
57664;DHT22;43493;53.098;6.064;2023-01-08T11:50:13;8.50;99.90
57664;DHT22;43493;53.098;6.064;2023-01-08T11:55:57;8.50;99.90
57664;DHT22;43493;53.098;6.064;2023-01-08T12:14:55;8.50;99.90
57664;DHT22;43493;53.098;6.064;2023-01-08T12:30:39;8.50;99.90
57664;DHT22;43493;53.098;6.064;2023-01-08T12:33:33;8.50;99.90
57664;DHT22;43493;53.098;6.064;2023-01-08T12:36:03;8.50;99.90
57664;DHT22;43493;53.098;6.064;2023-01-08T12:38:42;8.50;99.90
57664;DHT22;43493;53.098;6.064;2023-01-08T12:41:15;8.50;99.90
57664;DHT22;43493;53.098;6.064;2023-01-08T12:44:04;8.50;99.90
57664;DHT22;43493;53.098;6.064;2023-01-08T12:46:33;8.50;99.90
57664;DHT22;43493;53.098;6.064;2023-01-08T12:49:00;8.60;99.90
57664;DHT22;43493;53.098;6.064;2023-01-08T12:54:28;8.60;99.90
57664;DHT22;43493;53.098;6.064;2023-01-08T12:57:11;8.60;99.90
57664;DHT22;43493;53.098;6.064;2023-01-08T13:03:00;8.70;99.90
57664;DHT22;43493;53.098;6.064;2023-01-08T13:05:30;8.70;99.90
57664;DHT22;43493;53.098;6.064;2023-01-08T13:08:02;8.60;99.90
57664;DHT22;43493;53.098;6.064;2023-01-08T13:10:47;8.60;99.90
57664;DHT22;43493;53.098;6.064;2023-01-08T13:13:29;8.70;99.90
57664;DHT22;43493;53.098;6.064;2023-01-08T13:18:31;8.70;99.90
57664;DHT22;43493;53.098;6.064;2023-01-08T13:21:01;8.70;99.90
57664;DHT22;43493;53.098;6.064;2023-01-08T13:23:29;8.80;99.90
57664;DHT22;43493;53.098;6.064;2023-01-08T13:25:58;8.80;99.90
57664;DHT22;43493;53.098;6.064;2023-01-08T13:28:28;8.80;99.90
57664;DHT22;43493;53.098;6.064;2023-01-08T13:33:44;8.90;99.90
57664;DHT22;43493;53.098;6.064;2023-01-08T13:38:42;8.90;99.90
57664;DHT22;43493;53.098;6.064;2023-01-08T13:41:29;8.90;99.90
57664;DHT22;43493;53.098;6.064;2023-01-08T13:44:13;8.90;99.90
57664;DHT22;43493;53.098;6.064;2023-01-08T13:46:40;8.90;99.90
57664;DHT22;43493;53.098;6.064;2023-01-08T13:49:08;8.80;99.90
57664;DHT22;43493;53.098;6.064;2023-01-08T13:51:41;8.90;99.90
57664;DHT22;43493;53.098;6.064;2023-01-08T13:54:17;8.90;99.90
57664;DHT22;43493;53.098;6.064;2023-01-08T13:56:45;8.90;99.90
57664;DHT22;43493;53.098;6.064;2023-01-08T14:02:26;8.90;99.90
57664;DHT22;43493;53.098;6.064;2023-01-08T14:04:52;8.90;99.90
57664;DHT22;43493;53.098;6.064;2023-01-08T14:07:19;8.90;99.90
57664;DHT22;43493;53.098;6.064;2023-01-08T14:09:45;8.90;99.90
57664;DHT22;43493;53.098;6.064;2023-01-08T14:12:16;8.80;99.90
57664;DHT22;43493;53.098;6.064;2023-01-08T14:14:55;8.80;99.90
57664;DHT22;43493;53.098;6.064;2023-01-08T14:17:30;8.80;99.90
57664;DHT22;43493;53.098;6.064;2023-01-08T14:19:57;8.80;99.90
57664;DHT22;43493;53.098;6.064;2023-01-08T14:22:32;8.80;99.90
57664;DHT22;43493;53.098;6.064;2023-01-08T14:25:02;8.80;99.90
57664;DHT22;43493;53.098;6.064;2023-01-08T14:27:30;8.80;99.90
57664;DHT22;43493;53.098;6.064;2023-01-08T14:29:57;8.80;99.90
57664;DHT22;43493;53.098;6.064;2023-01-08T14:32:25;8.70;99.90
57664;DHT22;43493;53.098;6.064;2023-01-08T14:34:54;8.70;99.90
57664;DHT22;43493;53.098;6.064;2023-01-08T14:37:21;8.70;99.90
57664;DHT22;43493;53.098;6.064;2023-01-08T14:39:47;8.70;99.90
57664;DHT22;43493;53.098;6.064;2023-01-08T14:42:15;8.70;99.90
57664;DHT22;43493;53.098;6.064;2023-01-08T14:45:18;8.70;99.90
57664;DHT22;43493;53.098;6.064;2023-01-08T14:47:46;8.70;99.90
57664;DHT22;43493;53.098;6.064;2023-01-08T14:50:25;8.70;99.90
57664;DHT22;43493;53.098;6.064;2023-01-08T14:52:58;8.70;99.90
57664;DHT22;43493;53.098;6.064;2023-01-08T14:55:26;8.70;99.90
57664;DHT22;43493;53.098;6.064;2023-01-08T14:57:55;8.60;99.90
57664;DHT22;43493;53.098;6.064;2023-01-08T15:00:27;8.60;99.90
57664;DHT22;43493;53.098;6.064;2023-01-08T15:02:53;8.50;99.90
57664;DHT22;43493;53.098;6.064;2023-01-08T15:05:32;8.50;99.90
57664;DHT22;43493;53.098;6.064;2023-01-08T15:08:41;8.50;99.90
57664;DHT22;43493;53.098;6.064;2023-01-08T15:11:23;8.50;99.90
57664;DHT22;43493;53.098;6.064;2023-01-08T15:13:50;8.50;99.90
57664;DHT22;43493;53.098;6.064;2023-01-08T15:16:31;8.50;99.90
57664;DHT22;43493;53.098;6.064;2023-01-08T15:19:09;8.40;99.90
57664;DHT22;43493;53.098;6.064;2023-01-08T15:21:50;8.40;99.90
57664;DHT22;43493;53.098;6.064;2023-01-08T15:24:23;8.40;99.90
57664;DHT22;43493;53.098;6.064;2023-01-08T15:26:50;8.30;99.90
57664;DHT22;43493;53.098;6.064;2023-01-08T15:29:19;8.30;99.90
57664;DHT22;43493;53.098;6.064;2023-01-08T15:31:48;8.30;99.90
57664;DHT22;43493;53.098;6.064;2023-01-08T15:34:17;8.30;99.90
57664;DHT22;43493;53.098;6.064;2023-01-08T15:36:44;8.20;99.90
57664;DHT22;43493;53.098;6.064;2023-01-08T15:39:10;8.20;99.90
57664;DHT22;43493;53.098;6.064;2023-01-08T15:41:37;8.20;99.90
57664;DHT22;43493;53.098;6.064;2023-01-08T15:44:21;8.30;99.90
57664;DHT22;43493;53.098;6.064;2023-01-08T15:46:47;8.30;99.90
57664;DHT22;43493;53.098;6.064;2023-01-08T15:49:13;8.30;99.90
57664;DHT22;43493;53.098;6.064;2023-01-08T15:51:43;8.20;99.90
57664;DHT22;43493;53.098;6.064;2023-01-08T15:54:11;8.20;99.90
57664;DHT22;43493;53.098;6.064;2023-01-08T15:56:38;8.20;99.90
57664;DHT22;43493;53.098;6.064;2023-01-08T15:59:04;8.20;99.90
57664;DHT22;43493;53.098;6.064;2023-01-08T16:01:30;8.20;99.90
57664;DHT22;43493;53.098;6.064;2023-01-08T16:03:57;8.10;99.90
57664;DHT22;43493;53.098;6.064;2023-01-08T16:06:23;8.10;99.90
57664;DHT22;43493;53.098;6.064;2023-01-08T16:08:49;8.00;99.90
57664;DHT22;43493;53.098;6.064;2023-01-08T16:11:18;8.00;99.90
57664;DHT22;43493;53.098;6.064;2023-01-08T16:13:44;8.00;99.90
57664;DHT22;43493;53.098;6.064;2023-01-08T16:16:12;8.00;99.90
57664;DHT22;43493;53.098;6.064;2023-01-08T16:18:39;7.90;99.90
57664;DHT22;43493;53.098;6.064;2023-01-08T16:21:06;7.90;99.90
57664;DHT22;43493;53.098;6.064;2023-01-08T16:23:36;7.90;99.90
57664;DHT22;43493;53.098;6.064;2023-01-08T16:26:13;7.90;99.90
57664;DHT22;43493;53.098;6.064;2023-01-08T16:28:39;7.80;99.90
57664;DHT22;43493;53.098;6.064;2023-01-08T16:31:06;7.80;99.90
57664;DHT22;43493;53.098;6.064;2023-01-08T16:33:32;7.80;99.90
57664;DHT22;43493;53.098;6.064;2023-01-08T16:36:00;7.90;99.90
57664;DHT22;43493;53.098;6.064;2023-01-08T16:38:27;7.90;99.90
57664;DHT22;43493;53.098;6.064;2023-01-08T16:40:53;7.90;99.90
57664;DHT22;43493;53.098;6.064;2023-01-08T16:43:22;7.90;99.90
57664;DHT22;43493;53.098;6.064;2023-01-08T16:45:48;7.90;99.90
57664;DHT22;43493;53.098;6.064;2023-01-08T16:48:14;7.90;99.90
57664;DHT22;43493;53.098;6.064;2023-01-08T16:50:40;7.90;99.90
57664;DHT22;43493;53.098;6.064;2023-01-08T16:53:06;7.90;99.90
57664;DHT22;43493;53.098;6.064;2023-01-08T16:55:32;7.80;99.90
57664;DHT22;43493;53.098;6.064;2023-01-08T16:57:57;7.80;99.90
57664;DHT22;43493;53.098;6.064;2023-01-08T17:00:23;7.80;99.90
57664;DHT22;43493;53.098;6.064;2023-01-08T17:02:49;7.70;99.90
57664;DHT22;43493;53.098;6.064;2023-01-08T17:05:14;7.70;99.90
57664;DHT22;43493;53.098;6.064;2023-01-08T17:07:41;7.70;99.90
57664;DHT22;43493;53.098;6.064;2023-01-08T17:10:07;7.60;99.90
57664;DHT22;43493;53.098;6.064;2023-01-08T17:12:35;7.60;99.90